sensor_id;sensor_type;location;lat;lon;timestamp;P1;durP1;ratioP1;P2;durP2;ratioP2
14251;SDS011;7210;51.502;10.722;2023-03-04T00:00:04;37.50;;;21.33;;
14251;SDS011;7210;51.502;10.722;2023-03-04T00:02:35;34.23;;;20.97;;
14251;SDS011;7210;51.502;10.722;2023-03-04T00:05:02;40.40;;;22.30;;
14251;SDS011;7210;51.502;10.722;2023-03-04T00:07:30;39.33;;;22.93;;
14251;SDS011;7210;51.502;10.722;2023-03-04T00:09:57;38.77;;;21.27;;
14251;SDS011;7210;51.502;10.722;2023-03-04T00:12:24;36.67;;;19.73;;
14251;SDS011;7210;51.502;10.722;2023-03-04T00:14:51;37.60;;;22.07;;
14251;SDS011;7210;51.502;10.722;2023-03-04T00:17:20;32.83;;;20.80;;
14251;SDS011;7210;51.502;10.722;2023-03-04T00:19:48;34.00;;;20.37;;
14251;SDS011;7210;51.502;10.722;2023-03-04T00:22:15;34.87;;;19.77;;
14251;SDS011;7210;51.502;10.722;2023-03-04T00:24:42;39.33;;;21.03;;
14251;SDS011;7210;51.502;10.722;2023-03-04T00:27:13;33.97;;;19.90;;
14251;SDS011;7210;51.502;10.722;2023-03-04T00:29:40;32.10;;;19.10;;
14251;SDS011;7210;51.502;10.722;2023-03-04T00:32:07;30.93;;;20.43;;
14251;SDS011;7210;51.502;10.722;2023-03-04T00:34:36;33.00;;;20.30;;
14251;SDS011;7210;51.502;10.722;2023-03-04T00:37:04;30.33;;;19.50;;
14251;SDS011;7210;51.502;10.722;2023-03-04T00:39:31;30.23;;;18.43;;
14251;SDS011;7210;51.502;10.722;2023-03-04T00:41:59;31.00;;;19.13;;
14251;SDS011;7210;51.502;10.722;2023-03-04T00:44:26;31.50;;;19.70;;
14251;SDS011;7210;51.502;10.722;2023-03-04T00:46:53;31.73;;;19.47;;
14251;SDS011;7210;51.502;10.722;2023-03-04T00:49:20;30.33;;;18.77;;
14251;SDS011;7210;51.502;10.722;2023-03-04T00:51:50;33.53;;;20.67;;
14251;SDS011;7210;51.502;10.722;2023-03-04T00:54:17;32.13;;;18.93;;
14251;SDS011;7210;51.502;10.722;2023-03-04T00:56:45;29.70;;;18.93;;
14251;SDS011;7210;51.502;10.722;2023-03-04T00:59:12;31.73;;;17.60;;
14251;SDS011;7210;51.502;10.722;2023-03-04T01:01:39;29.57;;;18.63;;
14251;SDS011;7210;51.502;10.722;2023-03-04T01:04:06;31.67;;;19.33;;
14251;SDS011;7210;51.502;10.722;2023-03-04T01:06:34;28.83;;;17.63;;
14251;SDS011;7210;51.502;10.722;2023-03-04T01:09:02;28.43;;;17.03;;
14251;SDS011;7210;51.502;10.722;2023-03-04T01:11:29;30.30;;;18.90;;
14251;SDS011;7210;51.502;10.722;2023-03-04T01:14:06;31.37;;;18.83;;
14251;SDS011;7210;51.502;10.722;2023-03-04T01:16:33;31.50;;;18.93;;
14251;SDS011;7210;51.502;10.722;2023-03-04T01:19:00;31.67;;;20.70;;
14251;SDS011;7210;51.502;10.722;2023-03-04T01:21:28;28.60;;;17.90;;
14251;SDS011;7210;51.502;10.722;2023-03-04T01:23:55;30.17;;;18.83;;
14251;SDS011;7210;51.502;10.722;2023-03-04T01:26:24;35.43;;;19.07;;
14251;SDS011;7210;51.502;10.722;2023-03-04T01:28:51;34.23;;;20.23;;
14251;SDS011;7210;51.502;10.722;2023-03-04T01:31:18;36.27;;;21.00;;
14251;SDS011;7210;51.502;10.722;2023-03-04T01:33:46;30.37;;;18.93;;
14251;SDS011;7210;51.502;10.722;2023-03-04T01:36:13;32.60;;;18.83;;
14251;SDS011;7210;51.502;10.722;2023-03-04T01:38:40;31.27;;;19.47;;
14251;SDS011;7210;51.502;10.722;2023-03-04T01:41:07;33.47;;;18.17;;
14251;SDS011;7210;51.502;10.722;2023-03-04T01:43:37;35.00;;;19.53;;
14251;SDS011;7210;51.502;10.722;2023-03-04T01:46:05;33.20;;;20.33;;
14251;SDS011;7210;51.502;10.722;2023-03-04T01:48:33;30.80;;;17.83;;
14251;SDS011;7210;51.502;10.722;2023-03-04T01:51:04;32.30;;;17.07;;
14251;SDS011;7210;51.502;10.722;2023-03-04T01:53:37;30.80;;;17.63;;
14251;SDS011;7210;51.502;10.722;2023-03-04T01:59:08;29.57;;;18.53;;
14251;SDS011;7210;51.502;10.722;2023-03-04T02:01:39;31.57;;;17.10;;
14251;SDS011;7210;51.502;10.722;2023-03-04T02:04:09;31.97;;;17.77;;
14251;SDS011;7210;51.502;10.722;2023-03-04T02:06:39;36.83;;;17.80;;
14251;SDS011;7210;51.502;10.722;2023-03-04T02:09:07;27.97;;;15.53;;
14251;SDS011;7210;51.502;10.722;2023-03-04T02:11:36;30.57;;;17.57;;
14251;SDS011;7210;51.502;10.722;2023-03-04T02:14:05;29.77;;;16.80;;
14251;SDS011;7210;51.502;10.722;2023-03-04T02:16:35;35.53;;;18.97;;
14251;SDS011;7210;51.502;10.722;2023-03-04T02:19:03;33.00;;;18.33;;
14251;SDS011;7210;51.502;10.722;2023-03-04T02:21:38;32.27;;;16.60;;
14251;SDS011;7210;51.502;10.722;2023-03-04T02:24:07;36.03;;;17.33;;
14251;SDS011;7210;51.502;10.722;2023-03-04T02:26:46;29.03;;;16.37;;
14251;SDS011;7210;51.502;10.722;2023-03-04T02:29:13;25.50;;;15.10;;
14251;SDS011;7210;51.502;10.722;2023-03-04T02:31:43;25.23;;;15.90;;
14251;SDS011;7210;51.502;10.722;2023-03-04T02:34:13;32.47;;;15.13;;
14251;SDS011;7210;51.502;10.722;2023-03-04T02:36:48;27.27;;;15.73;;
14251;SDS011;7210;51.502;10.722;2023-03-04T02:39:21;28.57;;;15.10;;
14251;SDS011;7210;51.502;10.722;2023-03-04T02:41:56;28.77;;;16.27;;
14251;SDS011;7210;51.502;10.722;2023-03-04T02:44:26;30.13;;;15.50;;
14251;SDS011;7210;51.502;10.722;2023-03-04T02:47:06;28.80;;;15.57;;
14251;SDS011;7210;51.502;10.722;2023-03-04T02:49:36;27.90;;;14.33;;
14251;SDS011;7210;51.502;10.722;2023-03-04T02:52:06;25.90;;;14.57;;
14251;SDS011;7210;51.502;10.722;2023-03-04T02:54:38;26.90;;;13.50;;
14251;SDS011;7210;51.502;10.722;2023-03-04T02:57:08;22.30;;;12.43;;
14251;SDS011;7210;51.502;10.722;2023-03-04T02:59:40;28.07;;;14.27;;
14251;SDS011;7210;51.502;10.722;2023-03-04T03:02:13;26.27;;;13.23;;
14251;SDS011;7210;51.502;10.722;2023-03-04T03:04:41;20.70;;;12.50;;
14251;SDS011;7210;51.502;10.722;2023-03-04T03:07:11;26.73;;;13.27;;
14251;SDS011;7210;51.502;10.722;2023-03-04T03:09:40;21.57;;;11.17;;
14251;SDS011;7210;51.502;10.722;2023-03-04T03:14:59;24.70;;;12.13;;
14251;SDS011;7210;51.502;10.722;2023-03-04T03:17:27;23.00;;;12.53;;
14251;SDS011;7210;51.502;10.722;2023-03-04T03:19:54;23.27;;;11.97;;
14251;SDS011;7210;51.502;10.722;2023-03-04T03:22:21;22.33;;;11.10;;
14251;SDS011;7210;51.502;10.722;2023-03-04T03:24:49;25.23;;;11.63;;
14251;SDS011;7210;51.502;10.722;2023-03-04T03:27:16;27.57;;;11.13;;
14251;SDS011;7210;51.502;10.722;2023-03-04T03:29:44;26.67;;;12.07;;
14251;SDS011;7210;51.502;10.722;2023-03-04T03:32:12;23.27;;;11.23;;
14251;SDS011;7210;51.502;10.722;2023-03-04T03:34:40;28.90;;;11.80;;
14251;SDS011;7210;51.502;10.722;2023-03-04T03:37:08;21.83;;;11.93;;
14251;SDS011;7210;51.502;10.722;2023-03-04T03:39:35;28.77;;;11.13;;
14251;SDS011;7210;51.502;10.722;2023-03-04T03:42:02;19.03;;;11.17;;
14251;SDS011;7210;51.502;10.722;2023-03-04T03:44:29;24.67;;;10.70;;
14251;SDS011;7210;51.502;10.722;2023-03-04T03:47:00;23.67;;;10.73;;
14251;SDS011;7210;51.502;10.722;2023-03-04T03:49:29;18.17;;;10.20;;
14251;SDS011;7210;51.502;10.722;2023-03-04T03:51:56;20.00;;;10.50;;
14251;SDS011;7210;51.502;10.722;2023-03-04T03:54:23;23.10;;;11.17;;
14251;SDS011;7210;51.502;10.722;2023-03-04T03:56:50;21.87;;;10.27;;
14251;SDS011;7210;51.502;10.722;2023-03-04T03:59:17;20.30;;;9.73;;
14251;SDS011;7210;51.502;10.722;2023-03-04T04:01:45;24.03;;;9.83;;
14251;SDS011;7210;51.502;10.722;2023-03-04T04:04:12;19.80;;;9.93;;
14251;SDS011;7210;51.502;10.722;2023-03-04T04:06:41;22.87;;;10.07;;
14251;SDS011;7210;51.502;10.722;2023-03-04T04:09:11;20.50;;;10.27;;
14251;SDS011;7210;51.502;10.722;2023-03-04T04:11:38;22.63;;;9.37;;
14251;SDS011;7210;51.502;10.722;2023-03-04T04:14:06;20.83;;;8.43;;
14251;SDS011;7210;51.502;10.722;2023-03-04T04:16:34;21.23;;;8.60;;
14251;SDS011;7210;51.502;10.722;2023-03-04T04:19:01;18.70;;;8.50;;
14251;SDS011;7210;51.502;10.722;2023-03-04T04:21:28;21.23;;;8.73;;
14251;SDS011;7210;51.502;10.722;2023-03-04T04:23:57;23.63;;;9.37;;
14251;SDS011;7210;51.502;10.722;2023-03-04T04:26:24;20.73;;;8.13;;
14251;SDS011;7210;51.502;10.722;2023-03-04T04:28:51;20.27;;;8.80;;
14251;SDS011;7210;51.502;10.722;2023-03-04T04:31:18;16.13;;;7.23;;
14251;SDS011;7210;51.502;10.722;2023-03-04T04:33:45;19.33;;;8.67;;
14251;SDS011;7210;51.502;10.722;2023-03-04T04:36:13;16.93;;;8.47;;
14251;SDS011;7210;51.502;10.722;2023-03-04T04:38:41;24.67;;;8.63;;
14251;SDS011;7210;51.502;10.722;2023-03-04T04:41:14;17.27;;;7.70;;
14251;SDS011;7210;51.502;10.722;2023-03-04T04:43:47;16.93;;;7.30;;
14251;SDS011;7210;51.502;10.722;2023-03-04T04:46:15;17.93;;;7.33;;
14251;SDS011;7210;51.502;10.722;2023-03-04T04:48:42;16.03;;;6.93;;
14251;SDS011;7210;51.502;10.722;2023-03-04T04:51:10;15.03;;;6.93;;
14251;SDS011;7210;51.502;10.722;2023-03-04T04:53:37;16.07;;;7.53;;
14251;SDS011;7210;51.502;10.722;2023-03-04T04:56:08;19.07;;;7.97;;
14251;SDS011;7210;51.502;10.722;2023-03-04T04:58:39;17.47;;;7.63;;
14251;SDS011;7210;51.502;10.722;2023-03-04T05:01:07;16.43;;;7.17;;
14251;SDS011;7210;51.502;10.722;2023-03-04T05:03:36;14.83;;;6.53;;
14251;SDS011;7210;51.502;10.722;2023-03-04T05:06:04;15.07;;;6.80;;
14251;SDS011;7210;51.502;10.722;2023-03-04T05:08:34;17.40;;;5.90;;
14251;SDS011;7210;51.502;10.722;2023-03-04T05:11:03;23.50;;;7.07;;
14251;SDS011;7210;51.502;10.722;2023-03-04T05:13:36;20.17;;;7.20;;
14251;SDS011;7210;51.502;10.722;2023-03-04T05:16:05;16.67;;;6.33;;
14251;SDS011;7210;51.502;10.722;2023-03-04T05:18:33;15.30;;;5.30;;
14251;SDS011;7210;51.502;10.722;2023-03-04T05:21:01;14.70;;;5.50;;
14251;SDS011;7210;51.502;10.722;2023-03-04T05:23:31;21.23;;;6.80;;
14251;SDS011;7210;51.502;10.722;2023-03-04T05:26:00;17.03;;;6.70;;
14251;SDS011;7210;51.502;10.722;2023-03-04T05:28:28;20.60;;;6.50;;
14251;SDS011;7210;51.502;10.722;2023-03-04T05:30:56;16.43;;;6.13;;
14251;SDS011;7210;51.502;10.722;2023-03-04T05:33:24;14.03;;;6.27;;
14251;SDS011;7210;51.502;10.722;2023-03-04T05:35:52;17.57;;;5.70;;
14251;SDS011;7210;51.502;10.722;2023-03-04T05:38:19;12.93;;;5.73;;
14251;SDS011;7210;51.502;10.722;2023-03-04T05:40:48;14.93;;;6.40;;
14251;SDS011;7210;51.502;10.722;2023-03-04T05:43:20;20.70;;;5.80;;
14251;SDS011;7210;51.502;10.722;2023-03-04T05:45:47;12.63;;;5.17;;
14251;SDS011;7210;51.502;10.722;2023-03-04T05:48:15;17.80;;;5.70;;
14251;SDS011;7210;51.502;10.722;2023-03-04T05:50:43;11.90;;;5.13;;
14251;SDS011;7210;51.502;10.722;2023-03-04T05:53:11;17.23;;;4.93;;
14251;SDS011;7210;51.502;10.722;2023-03-04T05:55:44;14.30;;;5.17;;
14251;SDS011;7210;51.502;10.722;2023-03-04T05:58:12;17.13;;;5.60;;
14251;SDS011;7210;51.502;10.722;2023-03-04T06:00:40;17.07;;;5.23;;
14251;SDS011;7210;51.502;10.722;2023-03-04T06:03:08;15.93;;;5.03;;
14251;SDS011;7210;51.502;10.722;2023-03-04T06:05:57;14.60;;;5.27;;
14251;SDS011;7210;51.502;10.722;2023-03-04T06:08:25;12.20;;;4.60;;
14251;SDS011;7210;51.502;10.722;2023-03-04T06:10:56;11.53;;;3.93;;
14251;SDS011;7210;51.502;10.722;2023-03-04T06:13:26;14.07;;;4.63;;
14251;SDS011;7210;51.502;10.722;2023-03-04T06:15:55;13.93;;;4.90;;
14251;SDS011;7210;51.502;10.722;2023-03-04T06:18:24;15.90;;;5.40;;
14251;SDS011;7210;51.502;10.722;2023-03-04T06:20:54;19.27;;;6.97;;
14251;SDS011;7210;51.502;10.722;2023-03-04T06:23:25;17.23;;;7.27;;
14251;SDS011;7210;51.502;10.722;2023-03-04T06:25:53;15.17;;;6.47;;
14251;SDS011;7210;51.502;10.722;2023-03-04T06:28:23;14.53;;;5.73;;
14251;SDS011;7210;51.502;10.722;2023-03-04T06:30:51;13.47;;;4.97;;
14251;SDS011;7210;51.502;10.722;2023-03-04T06:33:19;12.43;;;4.50;;
14251;SDS011;7210;51.502;10.722;2023-03-04T06:35:46;14.10;;;4.87;;
14251;SDS011;7210;51.502;10.722;2023-03-04T06:38:15;14.33;;;4.53;;
14251;SDS011;7210;51.502;10.722;2023-03-04T06:40:42;12.73;;;5.50;;
14251;SDS011;7210;51.502;10.722;2023-03-04T06:43:10;9.53;;;4.50;;
14251;SDS011;7210;51.502;10.722;2023-03-04T06:45:37;15.93;;;5.10;;
14251;SDS011;7210;51.502;10.722;2023-03-04T06:48:05;9.80;;;4.13;;
14251;SDS011;7210;51.502;10.722;2023-03-04T06:50:32;15.10;;;4.27;;
14251;SDS011;7210;51.502;10.722;2023-03-04T06:52:59;10.20;;;4.27;;
14251;SDS011;7210;51.502;10.722;2023-03-04T06:55:28;15.63;;;4.37;;
14251;SDS011;7210;51.502;10.722;2023-03-04T06:57:55;10.57;;;4.60;;
14251;SDS011;7210;51.502;10.722;2023-03-04T07:00:23;8.90;;;4.20;;
14251;SDS011;7210;51.502;10.722;2023-03-04T07:02:50;11.13;;;4.50;;
14251;SDS011;7210;51.502;10.722;2023-03-04T07:05:18;10.70;;;4.17;;
14251;SDS011;7210;51.502;10.722;2023-03-04T07:07:45;10.63;;;4.13;;
14251;SDS011;7210;51.502;10.722;2023-03-04T07:10:13;9.80;;;4.17;;
14251;SDS011;7210;51.502;10.722;2023-03-04T07:12:42;11.23;;;4.37;;
14251;SDS011;7210;51.502;10.722;2023-03-04T07:15:09;13.87;;;4.13;;
14251;SDS011;7210;51.502;10.722;2023-03-04T07:17:42;12.13;;;4.87;;
14251;SDS011;7210;51.502;10.722;2023-03-04T07:20:09;10.43;;;3.70;;
14251;SDS011;7210;51.502;10.722;2023-03-04T07:22:37;9.07;;;3.70;;
14251;SDS011;7210;51.502;10.722;2023-03-04T07:25:05;11.97;;;3.73;;
14251;SDS011;7210;51.502;10.722;2023-03-04T07:27:38;9.87;;;4.20;;
14251;SDS011;7210;51.502;10.722;2023-03-04T07:30:08;8.43;;;3.37;;
14251;SDS011;7210;51.502;10.722;2023-03-04T07:32:37;9.10;;;3.77;;
14251;SDS011;7210;51.502;10.722;2023-03-04T07:35:04;9.30;;;3.47;;
14251;SDS011;7210;51.502;10.722;2023-03-04T07:37:32;8.27;;;4.27;;
14251;SDS011;7210;51.502;10.722;2023-03-04T07:39:59;10.67;;;3.53;;
14251;SDS011;7210;51.502;10.722;2023-03-04T07:42:27;13.33;;;3.60;;
14251;SDS011;7210;51.502;10.722;2023-03-04T07:45:01;11.00;;;2.73;;
14251;SDS011;7210;51.502;10.722;2023-03-04T07:47:31;7.23;;;3.70;;
14251;SDS011;7210;51.502;10.722;2023-03-04T07:49:58;9.27;;;3.37;;
14251;SDS011;7210;51.502;10.722;2023-03-04T07:52:25;7.97;;;3.20;;
14251;SDS011;7210;51.502;10.722;2023-03-04T07:54:54;7.33;;;3.30;;
14251;SDS011;7210;51.502;10.722;2023-03-04T07:57:21;8.77;;;2.93;;
14251;SDS011;7210;51.502;10.722;2023-03-04T07:59:48;6.10;;;3.27;;
14251;SDS011;7210;51.502;10.722;2023-03-04T08:02:15;10.40;;;2.70;;
14251;SDS011;7210;51.502;10.722;2023-03-04T08:04:44;9.37;;;3.10;;
14251;SDS011;7210;51.502;10.722;2023-03-04T08:07:11;8.20;;;3.13;;
14251;SDS011;7210;51.502;10.722;2023-03-04T08:09:38;5.30;;;2.40;;
14251;SDS011;7210;51.502;10.722;2023-03-04T08:12:05;6.23;;;2.80;;
14251;SDS011;7210;51.502;10.722;2023-03-04T08:14:33;8.47;;;2.80;;
14251;SDS011;7210;51.502;10.722;2023-03-04T08:17:01;8.33;;;3.00;;
14251;SDS011;7210;51.502;10.722;2023-03-04T08:19:34;6.57;;;2.20;;
14251;SDS011;7210;51.502;10.722;2023-03-04T08:22:08;10.43;;;3.00;;
14251;SDS011;7210;51.502;10.722;2023-03-04T08:24:42;9.27;;;2.90;;
14251;SDS011;7210;51.502;10.722;2023-03-04T08:27:09;6.60;;;2.53;;
14251;SDS011;7210;51.502;10.722;2023-03-04T08:29:36;11.07;;;3.13;;
14251;SDS011;7210;51.502;10.722;2023-03-04T08:32:03;11.13;;;2.90;;
14251;SDS011;7210;51.502;10.722;2023-03-04T08:34:31;9.93;;;4.33;;
14251;SDS011;7210;51.502;10.722;2023-03-04T08:36:58;17.80;;;12.77;;
14251;SDS011;7210;51.502;10.722;2023-03-04T08:39:26;33.23;;;18.70;;
14251;SDS011;7210;51.502;10.722;2023-03-04T08:41:53;17.60;;;8.73;;
14251;SDS011;7210;51.502;10.722;2023-03-04T08:44:21;8.83;;;4.53;;
14251;SDS011;7210;51.502;10.722;2023-03-04T08:46:48;8.63;;;4.07;;
14251;SDS011;7210;51.502;10.722;2023-03-04T08:49:15;6.10;;;3.50;;
14251;SDS011;7210;51.502;10.722;2023-03-04T08:51:48;8.57;;;2.97;;
14251;SDS011;7210;51.502;10.722;2023-03-04T08:54:16;6.00;;;2.33;;
14251;SDS011;7210;51.502;10.722;2023-03-04T08:56:44;10.23;;;3.23;;
14251;SDS011;7210;51.502;10.722;2023-03-04T08:59:11;6.47;;;2.87;;
14251;SDS011;7210;51.502;10.722;2023-03-04T09:01:39;9.33;;;2.60;;
14251;SDS011;7210;51.502;10.722;2023-03-04T09:04:09;8.33;;;2.80;;
14251;SDS011;7210;51.502;10.722;2023-03-04T09:06:39;4.73;;;2.03;;
14251;SDS011;7210;51.502;10.722;2023-03-04T09:09:12;9.23;;;2.50;;
14251;SDS011;7210;51.502;10.722;2023-03-04T09:11:39;6.00;;;2.07;;
14251;SDS011;7210;51.502;10.722;2023-03-04T09:14:07;5.93;;;2.67;;
14251;SDS011;7210;51.502;10.722;2023-03-04T09:16:34;4.17;;;1.90;;
14251;SDS011;7210;51.502;10.722;2023-03-04T09:19:02;5.00;;;2.03;;
14251;SDS011;7210;51.502;10.722;2023-03-04T09:21:29;6.87;;;2.83;;
14251;SDS011;7210;51.502;10.722;2023-03-04T09:23:56;6.00;;;2.43;;
14251;SDS011;7210;51.502;10.722;2023-03-04T09:26:24;6.03;;;2.23;;
14251;SDS011;7210;51.502;10.722;2023-03-04T09:28:55;6.50;;;2.30;;
14251;SDS011;7210;51.502;10.722;2023-03-04T09:31:26;3.83;;;2.33;;
14251;SDS011;7210;51.502;10.722;2023-03-04T09:33:55;4.60;;;2.43;;
14251;SDS011;7210;51.502;10.722;2023-03-04T09:36:24;8.20;;;1.90;;
14251;SDS011;7210;51.502;10.722;2023-03-04T09:38:51;5.30;;;2.10;;
14251;SDS011;7210;51.502;10.722;2023-03-04T09:41:24;4.57;;;2.00;;
14251;SDS011;7210;51.502;10.722;2023-03-04T09:44:01;3.87;;;2.00;;
14251;SDS011;7210;51.502;10.722;2023-03-04T09:46:41;4.83;;;2.03;;
14251;SDS011;7210;51.502;10.722;2023-03-04T09:49:11;5.70;;;2.50;;
14251;SDS011;7210;51.502;10.722;2023-03-04T09:51:44;7.70;;;2.50;;
14251;SDS011;7210;51.502;10.722;2023-03-04T09:54:24;6.17;;;2.67;;
14251;SDS011;7210;51.502;10.722;2023-03-04T09:57:21;7.37;;;4.53;;
14251;SDS011;7210;51.502;10.722;2023-03-04T09:59:59;4.47;;;2.53;;
14251;SDS011;7210;51.502;10.722;2023-03-04T10:02:44;4.10;;;2.00;;
14251;SDS011;7210;51.502;10.722;2023-03-04T10:05:44;4.97;;;2.30;;
14251;SDS011;7210;51.502;10.722;2023-03-04T10:08:23;3.70;;;1.87;;
14251;SDS011;7210;51.502;10.722;2023-03-04T10:11:08;4.30;;;1.53;;
14251;SDS011;7210;51.502;10.722;2023-03-04T10:13:50;3.60;;;1.73;;
14251;SDS011;7210;51.502;10.722;2023-03-04T10:16:28;3.77;;;1.80;;
14251;SDS011;7210;51.502;10.722;2023-03-04T10:19:14;4.23;;;2.50;;
14251;SDS011;7210;51.502;10.722;2023-03-04T10:21:55;4.27;;;1.60;;
14251;SDS011;7210;51.502;10.722;2023-03-04T10:24:23;3.70;;;1.50;;
14251;SDS011;7210;51.502;10.722;2023-03-04T10:26:55;4.43;;;1.67;;
14251;SDS011;7210;51.502;10.722;2023-03-04T10:29:30;2.50;;;1.80;;
14251;SDS011;7210;51.502;10.722;2023-03-04T10:31:59;3.10;;;1.70;;
14251;SDS011;7210;51.502;10.722;2023-03-04T10:34:36;3.57;;;1.60;;
14251;SDS011;7210;51.502;10.722;2023-03-04T10:37:04;4.47;;;2.10;;
14251;SDS011;7210;51.502;10.722;2023-03-04T10:39:34;4.50;;;1.87;;
14251;SDS011;7210;51.502;10.722;2023-03-04T10:42:05;3.70;;;1.83;;
14251;SDS011;7210;51.502;10.722;2023-03-04T10:44:53;2.33;;;1.80;;
14251;SDS011;7210;51.502;10.722;2023-03-04T10:47:23;2.90;;;1.63;;
14251;SDS011;7210;51.502;10.722;2023-03-04T10:49:54;4.73;;;1.70;;
14251;SDS011;7210;51.502;10.722;2023-03-04T10:52:28;3.77;;;2.37;;
14251;SDS011;7210;51.502;10.722;2023-03-04T10:54:59;4.30;;;1.80;;
14251;SDS011;7210;51.502;10.722;2023-03-04T10:57:34;3.33;;;1.70;;
14251;SDS011;7210;51.502;10.722;2023-03-04T11:00:19;6.10;;;2.27;;
14251;SDS011;7210;51.502;10.722;2023-03-04T11:03:11;3.37;;;1.70;;
14251;SDS011;7210;51.502;10.722;2023-03-04T11:06:05;4.23;;;2.60;;
14251;SDS011;7210;51.502;10.722;2023-03-04T11:08:41;8.67;;;5.37;;
14251;SDS011;7210;51.502;10.722;2023-03-04T11:13:59;1.80;;;1.60;;
14251;SDS011;7210;51.502;10.722;2023-03-04T11:16:38;3.13;;;1.70;;
14251;SDS011;7210;51.502;10.722;2023-03-04T11:19:12;3.33;;;2.10;;
14251;SDS011;7210;51.502;10.722;2023-03-04T11:21:44;4.00;;;2.00;;
14251;SDS011;7210;51.502;10.722;2023-03-04T11:24:13;4.33;;;1.80;;
14251;SDS011;7210;51.502;10.722;2023-03-04T11:26:50;3.20;;;1.80;;
14251;SDS011;7210;51.502;10.722;2023-03-04T11:29:22;4.10;;;1.60;;
14251;SDS011;7210;51.502;10.722;2023-03-04T11:31:57;3.50;;;1.60;;
14251;SDS011;7210;51.502;10.722;2023-03-04T11:34:35;4.50;;;1.70;;
14251;SDS011;7210;51.502;10.722;2023-03-04T11:37:13;5.67;;;1.77;;
14251;SDS011;7210;51.502;10.722;2023-03-04T11:39:48;3.67;;;1.47;;
14251;SDS011;7210;51.502;10.722;2023-03-04T11:42:27;3.20;;;1.53;;
14251;SDS011;7210;51.502;10.722;2023-03-04T11:45:07;2.43;;;1.40;;
14251;SDS011;7210;51.502;10.722;2023-03-04T11:47:47;1.80;;;1.70;;
14251;SDS011;7210;51.502;10.722;2023-03-04T11:50:30;3.47;;;1.87;;
14251;SDS011;7210;51.502;10.722;2023-03-04T11:53:32;2.90;;;1.73;;
14251;SDS011;7210;51.502;10.722;2023-03-04T11:56:23;2.23;;;1.50;;
14251;SDS011;7210;51.502;10.722;2023-03-04T11:59:16;3.07;;;1.60;;
14251;SDS011;7210;51.502;10.722;2023-03-04T12:02:18;3.90;;;1.40;;
14251;SDS011;7210;51.502;10.722;2023-03-04T12:04:51;3.90;;;1.90;;
14251;SDS011;7210;51.502;10.722;2023-03-04T12:07:48;2.87;;;1.83;;
14251;SDS011;7210;51.502;10.722;2023-03-04T12:10:37;3.87;;;2.00;;
14251;SDS011;7210;51.502;10.722;2023-03-04T12:13:29;3.80;;;1.90;;
14251;SDS011;7210;51.502;10.722;2023-03-04T12:16:24;2.43;;;1.57;;
14251;SDS011;7210;51.502;10.722;2023-03-04T12:19:17;1.50;;;1.40;;
14251;SDS011;7210;51.502;10.722;2023-03-04T12:22:03;3.37;;;1.90;;
14251;SDS011;7210;51.502;10.722;2023-03-04T12:28:12;5.37;;;1.80;;
14251;SDS011;7210;51.502;10.722;2023-03-04T12:31:15;2.10;;;1.50;;
14251;SDS011;7210;51.502;10.722;2023-03-04T12:34:03;5.77;;;1.50;;
14251;SDS011;7210;51.502;10.722;2023-03-04T12:37:03;3.90;;;1.80;;
14251;SDS011;7210;51.502;10.722;2023-03-04T12:39:59;3.53;;;1.73;;
14251;SDS011;7210;51.502;10.722;2023-03-04T12:42:54;3.53;;;1.90;;
14251;SDS011;7210;51.502;10.722;2023-03-04T12:45:36;4.03;;;1.70;;
14251;SDS011;7210;51.502;10.722;2023-03-04T12:48:15;3.23;;;2.00;;
14251;SDS011;7210;51.502;10.722;2023-03-04T12:51:08;4.17;;;1.73;;
14251;SDS011;7210;51.502;10.722;2023-03-04T12:54:15;6.67;;;2.90;;
14251;SDS011;7210;51.502;10.722;2023-03-04T12:56:57;3.07;;;1.70;;
14251;SDS011;7210;51.502;10.722;2023-03-04T12:59:31;4.80;;;2.47;;
14251;SDS011;7210;51.502;10.722;2023-03-04T13:02:12;10.07;;;3.33;;
14251;SDS011;7210;51.502;10.722;2023-03-04T13:05:25;11.27;;;6.00;;
14251;SDS011;7210;51.502;10.722;2023-03-04T13:08:10;10.93;;;5.83;;
14251;SDS011;7210;51.502;10.722;2023-03-04T13:14:22;24.40;;;13.13;;
14251;SDS011;7210;51.502;10.722;2023-03-04T13:16:56;22.50;;;13.27;;
14251;SDS011;7210;51.502;10.722;2023-03-04T13:19:45;28.13;;;15.87;;
14251;SDS011;7210;51.502;10.722;2023-03-04T13:22:26;16.03;;;9.37;;
14251;SDS011;7210;51.502;10.722;2023-03-04T13:25:00;5.60;;;3.67;;
14251;SDS011;7210;51.502;10.722;2023-03-04T13:28:15;3.57;;;2.43;;
14251;SDS011;7210;51.502;10.722;2023-03-04T13:33:47;3.10;;;1.70;;
14251;SDS011;7210;51.502;10.722;2023-03-04T13:39:22;9.00;;;3.27;;
14251;SDS011;7210;51.502;10.722;2023-03-04T13:42:01;6.30;;;2.67;;
14251;SDS011;7210;51.502;10.722;2023-03-04T13:44:56;5.10;;;2.70;;
14251;SDS011;7210;51.502;10.722;2023-03-04T13:47:29;4.90;;;2.30;;
14251;SDS011;7210;51.502;10.722;2023-03-04T13:53:20;5.90;;;2.37;;
14251;SDS011;7210;51.502;10.722;2023-03-04T13:56:09;8.20;;;2.67;;
14251;SDS011;7210;51.502;10.722;2023-03-04T13:58:50;7.70;;;2.43;;
14251;SDS011;7210;51.502;10.722;2023-03-04T14:01:32;4.03;;;2.13;;
14251;SDS011;7210;51.502;10.722;2023-03-04T14:04:09;6.90;;;2.43;;
14251;SDS011;7210;51.502;10.722;2023-03-04T14:06:42;8.53;;;2.60;;
14251;SDS011;7210;51.502;10.722;2023-03-04T14:09:12;5.57;;;2.20;;
14251;SDS011;7210;51.502;10.722;2023-03-04T14:11:41;5.27;;;2.57;;
14251;SDS011;7210;51.502;10.722;2023-03-04T14:14:10;5.50;;;1.90;;
14251;SDS011;7210;51.502;10.722;2023-03-04T14:16:45;3.27;;;2.57;;
14251;SDS011;7210;51.502;10.722;2023-03-04T14:19:17;6.20;;;3.20;;
14251;SDS011;7210;51.502;10.722;2023-03-04T14:21:50;4.57;;;2.27;;
14251;SDS011;7210;51.502;10.722;2023-03-04T14:24:18;4.20;;;2.00;;
14251;SDS011;7210;51.502;10.722;2023-03-04T14:26:48;6.13;;;2.67;;
14251;SDS011;7210;51.502;10.722;2023-03-04T14:29:28;5.30;;;2.53;;
14251;SDS011;7210;51.502;10.722;2023-03-04T14:31:57;5.03;;;2.47;;
14251;SDS011;7210;51.502;10.722;2023-03-04T14:34:27;8.87;;;3.03;;
14251;SDS011;7210;51.502;10.722;2023-03-04T14:36:59;4.47;;;2.63;;
14251;SDS011;7210;51.502;10.722;2023-03-04T14:39:29;3.43;;;2.07;;
14251;SDS011;7210;51.502;10.722;2023-03-04T14:42:02;3.87;;;2.13;;
14251;SDS011;7210;51.502;10.722;2023-03-04T14:44:36;6.17;;;2.50;;
14251;SDS011;7210;51.502;10.722;2023-03-04T14:47:13;4.30;;;2.27;;
14251;SDS011;7210;51.502;10.722;2023-03-04T14:49:48;6.40;;;2.77;;
14251;SDS011;7210;51.502;10.722;2023-03-04T14:52:27;4.17;;;2.33;;
14251;SDS011;7210;51.502;10.722;2023-03-04T14:55:16;3.90;;;1.90;;
14251;SDS011;7210;51.502;10.722;2023-03-04T14:57:50;5.43;;;2.63;;
14251;SDS011;7210;51.502;10.722;2023-03-04T15:00:24;5.23;;;2.23;;
14251;SDS011;7210;51.502;10.722;2023-03-04T15:02:59;2.50;;;1.90;;
14251;SDS011;7210;51.502;10.722;2023-03-04T15:05:30;3.90;;;1.80;;
14251;SDS011;7210;51.502;10.722;2023-03-04T15:08:00;4.73;;;2.73;;
14251;SDS011;7210;51.502;10.722;2023-03-04T15:10:32;4.33;;;2.23;;
14251;SDS011;7210;51.502;10.722;2023-03-04T15:13:02;4.97;;;2.03;;
14251;SDS011;7210;51.502;10.722;2023-03-04T15:15:33;3.77;;;2.17;;
14251;SDS011;7210;51.502;10.722;2023-03-04T15:18:20;5.47;;;2.27;;
14251;SDS011;7210;51.502;10.722;2023-03-04T15:20:51;3.73;;;2.20;;
14251;SDS011;7210;51.502;10.722;2023-03-04T15:23:21;4.67;;;1.83;;
14251;SDS011;7210;51.502;10.722;2023-03-04T15:25:50;4.70;;;2.10;;
14251;SDS011;7210;51.502;10.722;2023-03-04T15:28:19;3.30;;;1.50;;
14251;SDS011;7210;51.502;10.722;2023-03-04T15:30:48;3.40;;;1.97;;